sensor_id;sensor_type;location;lat;lon;timestamp;temperature;humidity
7708;DHT22;3896;48.758;8.888;2023-01-16T00:01:54;3.50;98.40
7708;DHT22;3896;48.758;8.888;2023-01-16T00:04:20;3.50;98.40
7708;DHT22;3896;48.758;8.888;2023-01-16T00:06:46;3.50;98.40
7708;DHT22;3896;48.758;8.888;2023-01-16T00:09:12;3.50;98.40
7708;DHT22;3896;48.758;8.888;2023-01-16T00:11:37;3.60;98.50
7708;DHT22;3896;48.758;8.888;2023-01-16T00:14:03;3.50;98.50
7708;DHT22;3896;48.758;8.888;2023-01-16T00:16:29;3.50;98.50
7708;DHT22;3896;48.758;8.888;2023-01-16T00:18:55;3.60;98.60
7708;DHT22;3896;48.758;8.888;2023-01-16T00:21:22;3.60;98.60
7708;DHT22;3896;48.758;8.888;2023-01-16T00:23:54;3.60;98.60
7708;DHT22;3896;48.758;8.888;2023-01-16T00:26:20;3.60;98.60
7708;DHT22;3896;48.758;8.888;2023-01-16T00:28:46;3.60;98.70
7708;DHT22;3896;48.758;8.888;2023-01-16T00:31:11;3.60;98.70
7708;DHT22;3896;48.758;8.888;2023-01-16T00:33:37;3.60;98.70
7708;DHT22;3896;48.758;8.888;2023-01-16T00:36:03;3.60;98.70
7708;DHT22;3896;48.758;8.888;2023-01-16T00:38:29;3.60;98.70
7708;DHT22;3896;48.758;8.888;2023-01-16T00:40:55;3.60;98.70
7708;DHT22;3896;48.758;8.888;2023-01-16T00:43:21;3.60;98.70
7708;DHT22;3896;48.758;8.888;2023-01-16T00:45:46;3.60;98.60
7708;DHT22;3896;48.758;8.888;2023-01-16T00:48:12;3.60;98.60
7708;DHT22;3896;48.758;8.888;2023-01-16T00:50:39;3.70;98.60
7708;DHT22;3896;48.758;8.888;2023-01-16T00:53:04;3.70;98.60
7708;DHT22;3896;48.758;8.888;2023-01-16T00:55:33;3.60;98.60
7708;DHT22;3896;48.758;8.888;2023-01-16T00:57:58;3.60;98.60
7708;DHT22;3896;48.758;8.888;2023-01-16T01:00:24;3.60;98.60
7708;DHT22;3896;48.758;8.888;2023-01-16T01:02:50;3.60;98.60
7708;DHT22;3896;48.758;8.888;2023-01-16T01:05:17;3.60;98.60
7708;DHT22;3896;48.758;8.888;2023-01-16T01:07:42;3.60;98.60
7708;DHT22;3896;48.758;8.888;2023-01-16T01:10:09;3.50;98.50
7708;DHT22;3896;48.758;8.888;2023-01-16T01:12:35;3.50;98.50
7708;DHT22;3896;48.758;8.888;2023-01-16T01:15:01;3.50;98.50
7708;DHT22;3896;48.758;8.888;2023-01-16T01:17:26;3.50;98.60
7708;DHT22;3896;48.758;8.888;2023-01-16T01:19:52;3.40;98.50
7708;DHT22;3896;48.758;8.888;2023-01-16T01:22:17;3.40;98.60
7708;DHT22;3896;48.758;8.888;2023-01-16T01:24:47;3.40;98.70
7708;DHT22;3896;48.758;8.888;2023-01-16T01:27:12;3.40;98.70
7708;DHT22;3896;48.758;8.888;2023-01-16T01:29:38;3.30;98.70
7708;DHT22;3896;48.758;8.888;2023-01-16T01:32:04;3.30;98.80
7708;DHT22;3896;48.758;8.888;2023-01-16T01:34:31;3.30;98.90
7708;DHT22;3896;48.758;8.888;2023-01-16T01:37:03;3.30;99.00
7708;DHT22;3896;48.758;8.888;2023-01-16T01:39:29;3.20;99.10
7708;DHT22;3896;48.758;8.888;2023-01-16T01:41:55;3.20;99.20
7708;DHT22;3896;48.758;8.888;2023-01-16T01:45:01;3.20;99.20
7708;DHT22;3896;48.758;8.888;2023-01-16T01:47:37;3.10;99.20
7708;DHT22;3896;48.758;8.888;2023-01-16T01:50:15;3.10;99.30
7708;DHT22;3896;48.758;8.888;2023-01-16T01:52:43;3.10;99.40
7708;DHT22;3896;48.758;8.888;2023-01-16T01:55:09;3.10;99.40
7708;DHT22;3896;48.758;8.888;2023-01-16T01:57:42;3.10;99.40
7708;DHT22;3896;48.758;8.888;2023-01-16T02:00:16;3.10;99.40
7708;DHT22;3896;48.758;8.888;2023-01-16T02:02:49;3.10;99.50
7708;DHT22;3896;48.758;8.888;2023-01-16T02:05:21;3.10;99.60
7708;DHT22;3896;48.758;8.888;2023-01-16T02:07:48;3.00;99.60
7708;DHT22;3896;48.758;8.888;2023-01-16T02:10:22;3.00;99.70
7708;DHT22;3896;48.758;8.888;2023-01-16T02:12:49;3.00;99.70
7708;DHT22;3896;48.758;8.888;2023-01-16T02:15:15;3.00;99.90
7708;DHT22;3896;48.758;8.888;2023-01-16T02:17:45;3.00;99.90
7708;DHT22;3896;48.758;8.888;2023-01-16T02:20:31;3.00;99.90
7708;DHT22;3896;48.758;8.888;2023-01-16T02:31:59;2.90;99.90
7708;DHT22;3896;48.758;8.888;2023-01-16T02:40:21;2.90;99.90
7708;DHT22;3896;48.758;8.888;2023-01-16T02:43:15;2.90;99.90
7708;DHT22;3896;48.758;8.888;2023-01-16T02:45:57;2.90;99.90
7708;DHT22;3896;48.758;8.888;2023-01-16T02:51:08;2.90;99.90
7708;DHT22;3896;48.758;8.888;2023-01-16T02:53:49;2.80;99.90
7708;DHT22;3896;48.758;8.888;2023-01-16T02:56:23;2.80;99.90
7708;DHT22;3896;48.758;8.888;2023-01-16T02:58:50;2.90;99.90
7708;DHT22;3896;48.758;8.888;2023-01-16T03:01:17;2.80;99.90
7708;DHT22;3896;48.758;8.888;2023-01-16T03:11:32;2.90;99.90
7708;DHT22;3896;48.758;8.888;2023-01-16T03:14:10;2.90;99.90
7708;DHT22;3896;48.758;8.888;2023-01-16T03:17:32;3.00;99.90
7708;DHT22;3896;48.758;8.888;2023-01-16T03:19:49;3.00;99.90
7708;DHT22;3896;48.758;8.888;2023-01-16T03:22:36;2.90;99.90
7708;DHT22;3896;48.758;8.888;2023-01-16T03:25:28;3.00;99.90
7708;DHT22;3896;48.758;8.888;2023-01-16T03:33:31;3.00;99.90
7708;DHT22;3896;48.758;8.888;2023-01-16T03:36:06;3.10;99.90
7708;DHT22;3896;48.758;8.888;2023-01-16T03:38:33;3.10;99.90
7708;DHT22;3896;48.758;8.888;2023-01-16T03:41:02;3.10;99.90
7708;DHT22;3896;48.758;8.888;2023-01-16T03:43:36;3.10;99.90
7708;DHT22;3896;48.758;8.888;2023-01-16T03:46:17;3.20;99.90
7708;DHT22;3896;48.758;8.888;2023-01-16T03:48:52;3.20;99.90
7708;DHT22;3896;48.758;8.888;2023-01-16T03:51:24;3.20;99.90
7708;DHT22;3896;48.758;8.888;2023-01-16T03:54:55;3.20;99.90
7708;DHT22;3896;48.758;8.888;2023-01-16T03:57:09;3.20;99.90
7708;DHT22;3896;48.758;8.888;2023-01-16T03:59:37;3.30;99.90
7708;DHT22;3896;48.758;8.888;2023-01-16T04:02:27;3.30;99.90
7708;DHT22;3896;48.758;8.888;2023-01-16T04:10:24;3.40;99.90
7708;DHT22;3896;48.758;8.888;2023-01-16T04:12:55;3.40;99.90
7708;DHT22;3896;48.758;8.888;2023-01-16T04:15:23;3.40;99.90
7708;DHT22;3896;48.758;8.888;2023-01-16T04:17:50;3.40;99.90
7708;DHT22;3896;48.758;8.888;2023-01-16T04:20:16;3.40;99.90
7708;DHT22;3896;48.758;8.888;2023-01-16T04:22:47;3.40;99.70
7708;DHT22;3896;48.758;8.888;2023-01-16T04:25:14;3.40;99.60
7708;DHT22;3896;48.758;8.888;2023-01-16T04:27:41;3.50;99.50
7708;DHT22;3896;48.758;8.888;2023-01-16T04:30:07;3.50;99.30
7708;DHT22;3896;48.758;8.888;2023-01-16T04:32:33;3.50;99.20
7708;DHT22;3896;48.758;8.888;2023-01-16T04:34:58;3.50;99.00
7708;DHT22;3896;48.758;8.888;2023-01-16T04:37:24;3.50;98.80
7708;DHT22;3896;48.758;8.888;2023-01-16T04:39:49;3.50;98.80
7708;DHT22;3896;48.758;8.888;2023-01-16T04:42:15;3.50;98.70
7708;DHT22;3896;48.758;8.888;2023-01-16T04:44:42;3.50;98.60
7708;DHT22;3896;48.758;8.888;2023-01-16T04:47:07;3.50;98.50
7708;DHT22;3896;48.758;8.888;2023-01-16T04:49:33;3.50;98.40
7708;DHT22;3896;48.758;8.888;2023-01-16T04:51:59;3.50;98.20
7708;DHT22;3896;48.758;8.888;2023-01-16T04:54:24;3.50;98.20
7708;DHT22;3896;48.758;8.888;2023-01-16T04:56:50;3.50;98.20
7708;DHT22;3896;48.758;8.888;2023-01-16T04:59:15;3.50;98.20
7708;DHT22;3896;48.758;8.888;2023-01-16T05:01:41;3.50;98.00
7708;DHT22;3896;48.758;8.888;2023-01-16T05:04:09;3.50;98.00
7708;DHT22;3896;48.758;8.888;2023-01-16T05:06:35;3.50;97.90
7708;DHT22;3896;48.758;8.888;2023-01-16T05:09:01;3.50;97.70
7708;DHT22;3896;48.758;8.888;2023-01-16T05:11:28;3.50;97.70
7708;DHT22;3896;48.758;8.888;2023-01-16T05:13:53;3.50;97.70
7708;DHT22;3896;48.758;8.888;2023-01-16T05:16:19;3.50;97.70
7708;DHT22;3896;48.758;8.888;2023-01-16T05:18:44;3.40;97.60
7708;DHT22;3896;48.758;8.888;2023-01-16T05:21:10;3.50;97.90
7708;DHT22;3896;48.758;8.888;2023-01-16T05:23:35;3.40;97.40
7708;DHT22;3896;48.758;8.888;2023-01-16T05:26:03;3.40;97.40
7708;DHT22;3896;48.758;8.888;2023-01-16T05:28:29;3.40;97.50
7708;DHT22;3896;48.758;8.888;2023-01-16T05:30:55;3.40;97.50
7708;DHT22;3896;48.758;8.888;2023-01-16T05:33:20;3.40;97.40
7708;DHT22;3896;48.758;8.888;2023-01-16T05:35:46;3.40;97.50
7708;DHT22;3896;48.758;8.888;2023-01-16T05:38:16;3.30;97.40
7708;DHT22;3896;48.758;8.888;2023-01-16T05:40:43;3.30;97.40
7708;DHT22;3896;48.758;8.888;2023-01-16T05:43:09;3.30;97.40
7708;DHT22;3896;48.758;8.888;2023-01-16T05:45:34;3.30;97.30
7708;DHT22;3896;48.758;8.888;2023-01-16T05:48:00;3.30;97.20
7708;DHT22;3896;48.758;8.888;2023-01-16T05:50:25;3.30;97.20
7708;DHT22;3896;48.758;8.888;2023-01-16T05:52:51;3.30;97.20
7708;DHT22;3896;48.758;8.888;2023-01-16T05:55:16;3.30;97.10
7708;DHT22;3896;48.758;8.888;2023-01-16T05:57:42;3.20;97.10
7708;DHT22;3896;48.758;8.888;2023-01-16T06:00:08;3.20;97.20
7708;DHT22;3896;48.758;8.888;2023-01-16T06:02:34;3.20;97.20
7708;DHT22;3896;48.758;8.888;2023-01-16T06:05:00;3.20;97.10
7708;DHT22;3896;48.758;8.888;2023-01-16T06:07:25;3.20;97.10
7708;DHT22;3896;48.758;8.888;2023-01-16T06:09:51;3.20;97.10
7708;DHT22;3896;48.758;8.888;2023-01-16T06:12:18;3.20;97.10
7708;DHT22;3896;48.758;8.888;2023-01-16T06:14:44;3.20;97.10
7708;DHT22;3896;48.758;8.888;2023-01-16T06:17:10;3.20;97.00
7708;DHT22;3896;48.758;8.888;2023-01-16T06:19:36;3.20;97.10
7708;DHT22;3896;48.758;8.888;2023-01-16T06:22:02;3.20;97.10
7708;DHT22;3896;48.758;8.888;2023-01-16T06:24:27;3.20;97.10
7708;DHT22;3896;48.758;8.888;2023-01-16T06:26:53;3.20;97.10
7708;DHT22;3896;48.758;8.888;2023-01-16T06:29:18;3.20;97.10
7708;DHT22;3896;48.758;8.888;2023-01-16T06:31:44;3.20;97.10
7708;DHT22;3896;48.758;8.888;2023-01-16T06:34:09;3.10;97.00
7708;DHT22;3896;48.758;8.888;2023-01-16T06:36:35;3.10;97.10
7708;DHT22;3896;48.758;8.888;2023-01-16T06:39:01;3.10;97.20
7708;DHT22;3896;48.758;8.888;2023-01-16T06:41:26;3.10;97.30
7708;DHT22;3896;48.758;8.888;2023-01-16T06:43:52;3.10;97.30
7708;DHT22;3896;48.758;8.888;2023-01-16T06:46:17;3.00;97.30
7708;DHT22;3896;48.758;8.888;2023-01-16T06:48:43;3.00;97.40
7708;DHT22;3896;48.758;8.888;2023-01-16T06:51:09;3.00;97.40
7708;DHT22;3896;48.758;8.888;2023-01-16T06:53:36;3.00;97.40
7708;DHT22;3896;48.758;8.888;2023-01-16T06:56:02;3.00;97.40
7708;DHT22;3896;48.758;8.888;2023-01-16T06:58:27;3.00;97.40
7708;DHT22;3896;48.758;8.888;2023-01-16T07:00:53;3.00;97.30
7708;DHT22;3896;48.758;8.888;2023-01-16T07:03:19;3.00;97.30
7708;DHT22;3896;48.758;8.888;2023-01-16T07:05:46;3.00;97.40
7708;DHT22;3896;48.758;8.888;2023-01-16T07:08:12;3.00;97.00
7708;DHT22;3896;48.758;8.888;2023-01-16T07:10:38;3.00;96.90
7708;DHT22;3896;48.758;8.888;2023-01-16T07:13:04;3.00;96.90
7708;DHT22;3896;48.758;8.888;2023-01-16T07:15:30;3.00;96.80
7708;DHT22;3896;48.758;8.888;2023-01-16T07:18:15;3.10;96.80
7708;DHT22;3896;48.758;8.888;2023-01-16T07:21:02;3.10;96.80
7708;DHT22;3896;48.758;8.888;2023-01-16T07:23:50;3.10;96.70
7708;DHT22;3896;48.758;8.888;2023-01-16T07:26:20;3.10;96.60
7708;DHT22;3896;48.758;8.888;2023-01-16T07:28:47;3.10;96.60
7708;DHT22;3896;48.758;8.888;2023-01-16T07:31:14;3.10;96.60
7708;DHT22;3896;48.758;8.888;2023-01-16T07:33:40;3.10;96.50
7708;DHT22;3896;48.758;8.888;2023-01-16T07:36:06;3.10;96.50
7708;DHT22;3896;48.758;8.888;2023-01-16T07:38:31;3.10;96.40
7708;DHT22;3896;48.758;8.888;2023-01-16T07:40:57;3.10;96.40
7708;DHT22;3896;48.758;8.888;2023-01-16T07:43:22;3.10;96.40
7708;DHT22;3896;48.758;8.888;2023-01-16T07:45:48;3.20;96.40
7708;DHT22;3896;48.758;8.888;2023-01-16T07:48:19;3.10;96.20
7708;DHT22;3896;48.758;8.888;2023-01-16T07:50:55;3.20;96.30
7708;DHT22;3896;48.758;8.888;2023-01-16T07:53:23;3.20;96.30
7708;DHT22;3896;48.758;8.888;2023-01-16T07:55:53;3.20;96.20
7708;DHT22;3896;48.758;8.888;2023-01-16T07:58:20;3.20;96.20
7708;DHT22;3896;48.758;8.888;2023-01-16T08:00:47;3.20;96.10
7708;DHT22;3896;48.758;8.888;2023-01-16T08:03:13;3.20;96.10
7708;DHT22;3896;48.758;8.888;2023-01-16T08:05:40;3.30;96.00
7708;DHT22;3896;48.758;8.888;2023-01-16T08:08:07;3.20;96.00
7708;DHT22;3896;48.758;8.888;2023-01-16T08:10:32;3.30;96.00
7708;DHT22;3896;48.758;8.888;2023-01-16T08:12:58;3.30;96.00
7708;DHT22;3896;48.758;8.888;2023-01-16T08:15:24;3.30;96.30
7708;DHT22;3896;48.758;8.888;2023-01-16T08:17:49;3.30;96.20
7708;DHT22;3896;48.758;8.888;2023-01-16T08:20:15;3.30;96.20
7708;DHT22;3896;48.758;8.888;2023-01-16T08:22:48;3.30;96.00
7708;DHT22;3896;48.758;8.888;2023-01-16T08:25:16;3.30;96.10
7708;DHT22;3896;48.758;8.888;2023-01-16T08:27:41;3.40;96.10
7708;DHT22;3896;48.758;8.888;2023-01-16T08:30:09;3.40;96.00
7708;DHT22;3896;48.758;8.888;2023-01-16T08:32:35;3.40;95.90
7708;DHT22;3896;48.758;8.888;2023-01-16T08:35:02;3.40;95.90
7708;DHT22;3896;48.758;8.888;2023-01-16T08:37:32;3.40;95.80
7708;DHT22;3896;48.758;8.888;2023-01-16T08:39:58;3.40;95.80
7708;DHT22;3896;48.758;8.888;2023-01-16T08:42:24;3.50;95.70
7708;DHT22;3896;48.758;8.888;2023-01-16T08:45:12;3.50;95.60
7708;DHT22;3896;48.758;8.888;2023-01-16T08:47:57;3.50;95.70
7708;DHT22;3896;48.758;8.888;2023-01-16T08:50:43;3.50;95.60
7708;DHT22;3896;48.758;8.888;2023-01-16T08:53:28;3.50;95.70
7708;DHT22;3896;48.758;8.888;2023-01-16T08:55:53;3.50;95.60
7708;DHT22;3896;48.758;8.888;2023-01-16T08:58:19;3.60;95.50
7708;DHT22;3896;48.758;8.888;2023-01-16T09:00:48;3.60;95.40
7708;DHT22;3896;48.758;8.888;2023-01-16T09:03:13;3.60;95.30
7708;DHT22;3896;48.758;8.888;2023-01-16T09:05:40;3.60;95.20
7708;DHT22;3896;48.758;8.888;2023-01-16T09:08:06;3.60;95.00
7708;DHT22;3896;48.758;8.888;2023-01-16T09:10:31;3.70;94.90
7708;DHT22;3896;48.758;8.888;2023-01-16T09:12:57;3.70;94.80
7708;DHT22;3896;48.758;8.888;2023-01-16T09:15:41;3.70;94.70
7708;DHT22;3896;48.758;8.888;2023-01-16T09:18:07;3.70;94.60
7708;DHT22;3896;48.758;8.888;2023-01-16T09:20:32;3.70;94.40
7708;DHT22;3896;48.758;8.888;2023-01-16T09:22:59;3.70;94.30
7708;DHT22;3896;48.758;8.888;2023-01-16T09:25:24;3.70;94.40
7708;DHT22;3896;48.758;8.888;2023-01-16T09:27:50;3.80;94.30
7708;DHT22;3896;48.758;8.888;2023-01-16T09:30:17;3.80;94.20
7708;DHT22;3896;48.758;8.888;2023-01-16T09:32:46;3.80;94.10
7708;DHT22;3896;48.758;8.888;2023-01-16T09:35:12;3.80;94.10
7708;DHT22;3896;48.758;8.888;2023-01-16T09:37:38;3.90;94.20
7708;DHT22;3896;48.758;8.888;2023-01-16T09:40:12;3.90;94.00
7708;DHT22;3896;48.758;8.888;2023-01-16T09:42:50;3.90;93.80
7708;DHT22;3896;48.758;8.888;2023-01-16T09:45:39;4.00;93.80
7708;DHT22;3896;48.758;8.888;2023-01-16T09:48:12;4.00;93.50
7708;DHT22;3896;48.758;8.888;2023-01-16T09:50:46;4.00;93.40
7708;DHT22;3896;48.758;8.888;2023-01-16T09:53:32;4.00;93.10
7708;DHT22;3896;48.758;8.888;2023-01-16T09:56:19;4.10;93.10
7708;DHT22;3896;48.758;8.888;2023-01-16T09:59:26;4.10;93.00
7708;DHT22;3896;48.758;8.888;2023-01-16T10:02:07;4.10;93.00
7708;DHT22;3896;48.758;8.888;2023-01-16T10:04:34;4.20;92.80
7708;DHT22;3896;48.758;8.888;2023-01-16T10:12:32;4.30;92.00
7708;DHT22;3896;48.758;8.888;2023-01-16T10:24:00;4.40;91.40
7708;DHT22;3896;48.758;8.888;2023-01-16T10:26:23;4.50;91.00
7708;DHT22;3896;48.758;8.888;2023-01-16T10:29:04;4.50;91.10
7708;DHT22;3896;48.758;8.888;2023-01-16T10:31:47;4.50;90.80
7708;DHT22;3896;48.758;8.888;2023-01-16T10:34:27;4.60;90.90
7708;DHT22;3896;48.758;8.888;2023-01-16T10:36:56;4.60;90.70
7708;DHT22;3896;48.758;8.888;2023-01-16T10:39:26;4.60;90.50
7708;DHT22;3896;48.758;8.888;2023-01-16T10:42:09;4.70;90.40
7708;DHT22;3896;48.758;8.888;2023-01-16T10:47:50;4.70;90.00
7708;DHT22;3896;48.758;8.888;2023-01-16T10:50:35;4.80;89.90
7708;DHT22;3896;48.758;8.888;2023-01-16T10:53:01;4.80;89.30
7708;DHT22;3896;48.758;8.888;2023-01-16T10:55:27;4.80;88.90
7708;DHT22;3896;48.758;8.888;2023-01-16T10:57:56;4.90;89.00
7708;DHT22;3896;48.758;8.888;2023-01-16T11:00:27;4.90;88.70
7708;DHT22;3896;48.758;8.888;2023-01-16T11:03:00;4.90;88.30
7708;DHT22;3896;48.758;8.888;2023-01-16T11:05:33;4.90;88.00
7708;DHT22;3896;48.758;8.888;2023-01-16T11:08:17;5.00;87.60
7708;DHT22;3896;48.758;8.888;2023-01-16T11:10:45;5.00;87.60
7708;DHT22;3896;48.758;8.888;2023-01-16T11:18:52;5.10;87.90
7708;DHT22;3896;48.758;8.888;2023-01-16T11:21:25;5.10;88.20
7708;DHT22;3896;48.758;8.888;2023-01-16T11:24:13;5.20;88.30
7708;DHT22;3896;48.758;8.888;2023-01-16T11:26:39;5.20;88.70
7708;DHT22;3896;48.758;8.888;2023-01-16T11:29:12;5.30;88.90
7708;DHT22;3896;48.758;8.888;2023-01-16T11:31:40;5.30;89.20
7708;DHT22;3896;48.758;8.888;2023-01-16T11:34:11;5.30;89.40
7708;DHT22;3896;48.758;8.888;2023-01-16T11:36:40;5.30;89.60
7708;DHT22;3896;48.758;8.888;2023-01-16T11:39:18;5.40;89.90
7708;DHT22;3896;48.758;8.888;2023-01-16T11:41:50;5.40;89.90
7708;DHT22;3896;48.758;8.888;2023-01-16T11:44:22;5.50;90.00
7708;DHT22;3896;48.758;8.888;2023-01-16T11:47:12;5.50;90.10
7708;DHT22;3896;48.758;8.888;2023-01-16T11:49:40;5.60;90.20
7708;DHT22;3896;48.758;8.888;2023-01-16T11:52:12;5.60;90.20
7708;DHT22;3896;48.758;8.888;2023-01-16T11:54:38;5.70;90.10
7708;DHT22;3896;48.758;8.888;2023-01-16T12:14:21;5.90;90.00
7708;DHT22;3896;48.758;8.888;2023-01-16T12:22:14;6.10;90.00
7708;DHT22;3896;48.758;8.888;2023-01-16T12:27:41;6.10;89.90
7708;DHT22;3896;48.758;8.888;2023-01-16T12:33:15;6.20;90.00
7708;DHT22;3896;48.758;8.888;2023-01-16T12:35:59;6.30;90.00
7708;DHT22;3896;48.758;8.888;2023-01-16T12:38:42;6.30;90.00
7708;DHT22;3896;48.758;8.888;2023-01-16T12:41:23;6.30;90.10
7708;DHT22;3896;48.758;8.888;2023-01-16T12:44:27;6.30;90.10
7708;DHT22;3896;48.758;8.888;2023-01-16T12:49:56;6.40;90.20
7708;DHT22;3896;48.758;8.888;2023-01-16T12:58:33;6.50;90.20
7708;DHT22;3896;48.758;8.888;2023-01-16T13:01:25;6.50;90.10
7708;DHT22;3896;48.758;8.888;2023-01-16T13:04:13;6.60;90.10
7708;DHT22;3896;48.758;8.888;2023-01-16T13:06:45;6.70;90.20
7708;DHT22;3896;48.758;8.888;2023-01-16T13:09:22;6.70;90.20
7708;DHT22;3896;48.758;8.888;2023-01-16T13:12:24;6.80;90.20
7708;DHT22;3896;48.758;8.888;2023-01-16T13:15:19;6.90;90.10
7708;DHT22;3896;48.758;8.888;2023-01-16T13:17:49;6.90;90.00
7708;DHT22;3896;48.758;8.888;2023-01-16T13:20:18;7.00;89.80
7708;DHT22;3896;48.758;8.888;2023-01-16T13:22:55;7.10;89.60
7708;DHT22;3896;48.758;8.888;2023-01-16T13:25:29;7.20;89.60
7708;DHT22;3896;48.758;8.888;2023-01-16T13:28:00;7.30;89.60
7708;DHT22;3896;48.758;8.888;2023-01-16T13:30:26;7.40;89.20
7708;DHT22;3896;48.758;8.888;2023-01-16T13:32:54;7.60;89.00
7708;DHT22;3896;48.758;8.888;2023-01-16T13:41:46;8.00;87.60
7708;DHT22;3896;48.758;8.888;2023-01-16T13:44:20;8.20;87.20
7708;DHT22;3896;48.758;8.888;2023-01-16T13:47:15;8.40;86.70
7708;DHT22;3896;48.758;8.888;2023-01-16T13:49:48;8.50;86.40
7708;DHT22;3896;48.758;8.888;2023-01-16T13:52:24;8.70;84.70
7708;DHT22;3896;48.758;8.888;2023-01-16T13:54:54;8.70;83.60
7708;DHT22;3896;48.758;8.888;2023-01-16T13:57:21;8.80;82.90
7708;DHT22;3896;48.758;8.888;2023-01-16T13:59:51;8.80;82.40
7708;DHT22;3896;48.758;8.888;2023-01-16T14:11:03;8.70;81.40
7708;DHT22;3896;48.758;8.888;2023-01-16T14:13:35;8.60;81.80
7708;DHT22;3896;48.758;8.888;2023-01-16T14:21:26;8.50;81.80
7708;DHT22;3896;48.758;8.888;2023-01-16T14:23:56;8.40;82.00
7708;DHT22;3896;48.758;8.888;2023-01-16T14:29:17;8.20;81.70
7708;DHT22;3896;48.758;8.888;2023-01-16T14:32:04;8.10;82.30
7708;DHT22;3896;48.758;8.888;2023-01-16T14:34:37;8.00;82.40
7708;DHT22;3896;48.758;8.888;2023-01-16T14:37:21;7.90;82.80
7708;DHT22;3896;48.758;8.888;2023-01-16T14:39:59;7.80;83.20
7708;DHT22;3896;48.758;8.888;2023-01-16T14:42:32;7.70;83.40
7708;DHT22;3896;48.758;8.888;2023-01-16T14:48:15;7.50;83.90
7708;DHT22;3896;48.758;8.888;2023-01-16T14:51:28;7.50;83.90
7708;DHT22;3896;48.758;8.888;2023-01-16T14:57:11;7.40;83.90
7708;DHT22;3896;48.758;8.888;2023-01-16T15:00:02;7.30;83.90
7708;DHT22;3896;48.758;8.888;2023-01-16T15:02:34;7.30;84.20
7708;DHT22;3896;48.758;8.888;2023-01-16T15:07:54;7.20;84.20
7708;DHT22;3896;48.758;8.888;2023-01-16T15:10:36;7.20;84.30
7708;DHT22;3896;48.758;8.888;2023-01-16T15:16:00;7.10;84.60
7708;DHT22;3896;48.758;8.888;2023-01-16T15:18:26;7.10;84.90
7708;DHT22;3896;48.758;8.888;2023-01-16T15:21:15;7.10;85.00
7708;DHT22;3896;48.758;8.888;2023-01-16T15:24:20;7.00;85.40
7708;DHT22;3896;48.758;8.888;2023-01-16T15:31:57;6.80;87.80
7708;DHT22;3896;48.758;8.888;2023-01-16T15:34:28;6.80;88.50
7708;DHT22;3896;48.758;8.888;2023-01-16T15:36:55;6.70;89.40
7708;DHT22;3896;48.758;8.888;2023-01-16T15:39:30;6.70;90.00
7708;DHT22;3896;48.758;8.888;2023-01-16T15:42:11;6.60;90.30
7708;DHT22;3896;48.758;8.888;2023-01-16T15:45:23;6.50;90.70
7708;DHT22;3896;48.758;8.888;2023-01-16T15:48:16;6.50;91.10
7708;DHT22;3896;48.758;8.888;2023-01-16T15:50:57;6.40;91.70
7708;DHT22;3896;48.758;8.888;2023-01-16T15:53:34;6.60;92.20
7708;DHT22;3896;48.758;8.888;2023-01-16T15:56:07;6.40;92.30
7708;DHT22;3896;48.758;8.888;2023-01-16T15:58:35;6.40;92.50
7708;DHT22;3896;48.758;8.888;2023-01-16T16:01:05;6.30;92.80
7708;DHT22;3896;48.758;8.888;2023-01-16T16:03:46;6.30;93.10
7708;DHT22;3896;48.758;8.888;2023-01-16T16:06:13;6.20;93.20
7708;DHT22;3896;48.758;8.888;2023-01-16T16:08:45;6.10;93.70
7708;DHT22;3896;48.758;8.888;2023-01-16T16:14:02;6.00;94.50
7708;DHT22;3896;48.758;8.888;2023-01-16T16:16:28;5.90;95.00
7708;DHT22;3896;48.758;8.888;2023-01-16T16:19:34;5.90;95.30
7708;DHT22;3896;48.758;8.888;2023-01-16T16:22:07;5.80;95.50
7708;DHT22;3896;48.758;8.888;2023-01-16T16:24:52;5.80;96.00
7708;DHT22;3896;48.758;8.888;2023-01-16T16:27:17;5.70;96.50
7708;DHT22;3896;48.758;8.888;2023-01-16T16:29:53;5.70;97.00
7708;DHT22;3896;48.758;8.888;2023-01-16T16:32:19;5.60;97.30
7708;DHT22;3896;48.758;8.888;2023-01-16T16:34:55;5.60;97.90
7708;DHT22;3896;48.758;8.888;2023-01-16T16:37:22;5.60;98.20
7708;DHT22;3896;48.758;8.888;2023-01-16T16:39:58;5.60;98.60
7708;DHT22;3896;48.758;8.888;2023-01-16T16:45:09;5.60;99.20
7708;DHT22;3896;48.758;8.888;2023-01-16T16:47:39;5.50;99.40
7708;DHT22;3896;48.758;8.888;2023-01-16T16:50:30;5.50;99.90
7708;DHT22;3896;48.758;8.888;2023-01-16T16:53:10;5.40;99.90
7708;DHT22;3896;48.758;8.888;2023-01-16T16:55:38;5.40;99.90
7708;DHT22;3896;48.758;8.888;2023-01-16T16:58:11;5.40;99.90
7708;DHT22;3896;48.758;8.888;2023-01-16T17:00:37;5.30;99.90
7708;DHT22;3896;48.758;8.888;2023-01-16T17:03:24;5.40;99.90
7708;DHT22;3896;48.758;8.888;2023-01-16T17:05:51;5.30;99.90
7708;DHT22;3896;48.758;8.888;2023-01-16T17:08:35;5.30;99.90
7708;DHT22;3896;48.758;8.888;2023-01-16T17:11:01;5.30;99.90
7708;DHT22;3896;48.758;8.888;2023-01-16T17:13:26;5.30;99.90
7708;DHT22;3896;48.758;8.888;2023-01-16T17:15:56;5.30;99.90
7708;DHT22;3896;48.758;8.888;2023-01-16T17:18:23;5.30;99.90
7708;DHT22;3896;48.758;8.888;2023-01-16T17:20:50;5.30;99.90
7708;DHT22;3896;48.758;8.888;2023-01-16T17:23:18;5.30;99.90
7708;DHT22;3896;48.758;8.888;2023-01-16T17:25:45;5.30;99.90
7708;DHT22;3896;48.758;8.888;2023-01-16T17:28:11;5.30;99.90
7708;DHT22;3896;48.758;8.888;2023-01-16T17:30:37;5.20;99.90
7708;DHT22;3896;48.758;8.888;2023-01-16T17:35:39;5.20;99.90
7708;DHT22;3896;48.758;8.888;2023-01-16T17:38:17;5.10;99.90
7708;DHT22;3896;48.758;8.888;2023-01-16T17:40:43;5.10;99.90
7708;DHT22;3896;48.758;8.888;2023-01-16T17:43:17;5.10;99.90
7708;DHT22;3896;48.758;8.888;2023-01-16T17:46:04;5.10;99.90
7708;DHT22;3896;48.758;8.888;2023-01-16T17:48:30;5.10;99.90
7708;DHT22;3896;48.758;8.888;2023-01-16T17:50:57;5.10;99.90
7708;DHT22;3896;48.758;8.888;2023-01-16T17:53:26;5.00;99.90
7708;DHT22;3896;48.758;8.888;2023-01-16T17:55:53;5.00;99.90
7708;DHT22;3896;48.758;8.888;2023-01-16T17:58:24;5.00;99.90
7708;DHT22;3896;48.758;8.888;2023-01-16T18:00:58;5.00;99.90
7708;DHT22;3896;48.758;8.888;2023-01-16T18:03:24;5.00;99.90
7708;DHT22;3896;48.758;8.888;2023-01-16T18:05:50;5.00;99.90
7708;DHT22;3896;48.758;8.888;2023-01-16T18:08:16;5.00;99.90
7708;DHT22;3896;48.758;8.888;2023-01-16T18:10:42;4.90;99.90
7708;DHT22;3896;48.758;8.888;2023-01-16T18:13:11;4.90;99.90
7708;DHT22;3896;48.758;8.888;2023-01-16T18:15:56;4.90;99.90
7708;DHT22;3896;48.758;8.888;2023-01-16T18:18:40;4.90;99.90
7708;DHT22;3896;48.758;8.888;2023-01-16T18:21:10;4.90;99.90
7708;DHT22;3896;48.758;8.888;2023-01-16T18:23:55;4.80;99.90
7708;DHT22;3896;48.758;8.888;2023-01-16T18:26:22;4.80;99.90
7708;DHT22;3896;48.758;8.888;2023-01-16T18:28:47;4.80;99.90
7708;DHT22;3896;48.758;8.888;2023-01-16T18:31:15;4.80;99.90
7708;DHT22;3896;48.758;8.888;2023-01-16T18:33:40;4.80;99.90
7708;DHT22;3896;48.758;8.888;2023-01-16T18:36:06;4.80;99.90
7708;DHT22;3896;48.758;8.888;2023-01-16T18:38:32;4.70;99.90
7708;DHT22;3896;48.758;8.888;2023-01-16T18:41:16;4.70;99.90
7708;DHT22;3896;48.758;8.888;2023-01-16T18:44:00;4.70;99.90
7708;DHT22;3896;48.758;8.888;2023-01-16T18:46:44;4.70;99.90
7708;DHT22;3896;48.758;8.888;2023-01-16T18:49:28;4.70;99.90
7708;DHT22;3896;48.758;8.888;2023-01-16T18:52:16;4.60;99.90
7708;DHT22;3896;48.758;8.888;2023-01-16T18:55:01;4.60;99.90
7708;DHT22;3896;48.758;8.888;2023-01-16T18:57:46;4.60;99.90
7708;DHT22;3896;48.758;8.888;2023-01-16T19:00:31;4.60;99.90
7708;DHT22;3896;48.758;8.888;2023-01-16T19:03:15;4.60;99.90
7708;DHT22;3896;48.758;8.888;2023-01-16T19:05:43;4.50;99.90
7708;DHT22;3896;48.758;8.888;2023-01-16T19:08:10;4.50;99.90
7708;DHT22;3896;48.758;8.888;2023-01-16T19:10:40;4.50;99.90
7708;DHT22;3896;48.758;8.888;2023-01-16T19:13:06;4.50;99.90